Heber City, UT

10:01 AM MST on February 14, 2016 (GMT -0700)
US 40 & Coyote Lane | | Change Station
CLOSE
Current Station
Personal Weather Station
Location: Heber City, UT
Elevation: 5763 ft
Nearby Weather Stations

Elev 5763 ft 40.52 °N, 111.41 °W | Updated 1 minute ago

Overcast
Overcast
27.0 °F
Feels Like 27 °F
N
0.0
Wind Variable Wind from North
Gusts 0.0 mph

Today
High -- | Low -- °F
--% Chance of Precip.
Yesterday
High -- | Low -- °F
Precip. -- in
Pressure 30.28 in
Visibility 0.8 miles
Clouds
Windchill 27 °F
Dew Point 22 °F
Humidity 83%
Rainfall Not available.
Snow Depth Not available.
7:21 AM 5:59 PM
Waxing Crescent, 43% visible
METAR KPVU 141656Z 23005KT 3/4SM FG VV005 M03/M04 A3028
Pressure 30.28 in
Visibility 0.8 miles
Clouds
Windchill 27 °F
Dew Point 22 °F
Humidity 83%
Rainfall Not available.
Snow Depth Not available.
7:21 AM 5:59 PM
Waxing Crescent, 43% visible
METAR KPVU 141656Z 23005KT 3/4SM FG VV005 M03/M04 A3028

10-Day Weather Forecast

Almanac

Astronomy

Feb. 14, 2016 Rise Set
Actual Time
Civil Twilight
Nautical Twilight
Astronomical Twilight
Moon
Length of Visible Light
Length of Day
Tomorrow will be .
, % of the Moon is Illuminated

Today's Extremes

State Highs State Lows

Community

WunderPhotos

Upload Photos

1,892,849 photos uploaded!

WunderBlog® & News

Nearby

Air Quality

  Air Quality AQ Index Pollutant
Not available.

Snow Depth

Station Depth Elevation

Earthquake Activity

City Distance Mag. Time & Date
Minimum magnitude displayed is 2.5.

Coastal Water Temperatures

Place Temperature

Stations

Nearby Weather Stations

Station Location Temp. Windchill Dew Point Humidity Wind Precip. Elev Updated Type
                   

Watches & Warnings

There are currently no watches in effect.